VPCOH PAFA-PAKT
Flight info
| Callsign | VPCOH |
|---|---|
| Flight time | N/A |
| Altitude | 39000 |
| Route | BIG ORT SSR DOOZI |
| Aircraft | B738/M-SDE2E3FGHIRWXY/LB1 |
Departure
| Time | 2026-04-25 15:22 |
|---|---|
| Airport | Fairbanks International Airport (PAFA) |
Arrival
| Time | N/A |
|---|---|
| Airport | Ketchikan International Airport (PAKT) |
| Time | Latitude | Longitude | Altitude | Speed | Heading |
|---|---|---|---|---|---|
| 2026-04-25 14:49 | 64.81546 | -147.87093 | 433 ft | 0 kts | 88° |
| 2026-04-25 15:13 | 64.81547 | -147.87083 | 442 ft | 3 kts | 88° |
| 2026-04-25 15:13 | 64.81531 | -147.86846 | 433 ft | 9 kts | 128° |
| 2026-04-25 15:13 | 64.81493 | -147.86741 | 428 ft | 8 kts | 140° |
| 2026-04-25 15:14 | 64.81441 | -147.86750 | 440 ft | 8 kts | 220° |
| 2026-04-25 15:14 | 64.81398 | -147.86837 | 439 ft | 8 kts | 219° |
| 2026-04-25 15:14 | 64.81355 | -147.86918 | 440 ft | 8 kts | 217° |
| 2026-04-25 15:14 | 64.81304 | -147.87009 | 438 ft | 10 kts | 218° |
| 2026-04-25 15:15 | 64.81247 | -147.87114 | 435 ft | 10 kts | 218° |
| 2026-04-25 15:15 | 64.81192 | -147.87215 | 442 ft | 10 kts | 218° |
| 2026-04-25 15:15 | 64.81137 | -147.87315 | 429 ft | 10 kts | 218° |
| 2026-04-25 15:15 | 64.81084 | -147.87411 | 426 ft | 9 kts | 218° |
| 2026-04-25 15:16 | 64.81033 | -147.87506 | 442 ft | 9 kts | 218° |
| 2026-04-25 15:16 | 64.80984 | -147.87597 | 432 ft | 9 kts | 218° |
| 2026-04-25 15:16 | 64.80888 | -147.87774 | 431 ft | 8 kts | 217° |
| 2026-04-25 15:17 | 64.80797 | -147.87939 | 436 ft | 8 kts | 218° |
| 2026-04-25 15:17 | 64.80754 | -147.88019 | 436 ft | 8 kts | 218° |
| 2026-04-25 15:17 | 64.80712 | -147.88097 | 431 ft | 8 kts | 218° |
| 2026-04-25 15:18 | 64.80671 | -147.88172 | 431 ft | 7 kts | 218° |
| 2026-04-25 15:18 | 64.80594 | -147.88317 | 439 ft | 7 kts | 219° |
| 2026-04-25 15:18 | 64.80556 | -147.88386 | 426 ft | 7 kts | 217° |
| 2026-04-25 15:19 | 64.80518 | -147.88454 | 442 ft | 7 kts | 218° |
| 2026-04-25 15:19 | 64.80493 | -147.88499 | 438 ft | 7 kts | 218° |
| 2026-04-25 15:19 | 64.80445 | -147.88588 | 442 ft | 7 kts | 218° |
| 2026-04-25 15:19 | 64.80410 | -147.88654 | 436 ft | 6 kts | 218° |
| 2026-04-25 15:20 | 64.80371 | -147.88723 | 438 ft | 7 kts | 211° |
| 2026-04-25 15:20 | 64.80322 | -147.88718 | 433 ft | 8 kts | 149° |
| 2026-04-25 15:20 | 64.80284 | -147.88613 | 436 ft | 10 kts | 128° |
| 2026-04-25 15:20 | 64.80284 | -147.88539 | 439 ft | 0 kts | 32° |
| 2026-04-25 15:21 | 64.80284 | -147.88538 | 439 ft | 0 kts | 32° |
| 2026-04-25 15:21 | 64.80353 | -147.88428 | 433 ft | 43 kts | 37° |
| 2026-04-25 15:21 | 64.80820 | -147.87571 | 428 ft | 124 kts | 38° |
| 2026-04-25 15:21 | 64.81667 | -147.85964 | 523 ft | 181 kts | 39° |
| 2026-04-25 15:22 | 64.82662 | -147.84177 | 1494 ft | 176 kts | 37° |
| 2026-04-25 15:22 | 64.83664 | -147.82417 | 2381 ft | 188 kts | 38° |
| 2026-04-25 15:22 | 64.84717 | -147.80155 | 2719 ft | 222 kts | 57° |
| 2026-04-25 15:22 | 64.85213 | -147.76586 | 3056 ft | 239 kts | 92° |
| 2026-04-25 15:23 | 64.84802 | -147.72746 | 3510 ft | 253 kts | 124° |
| 2026-04-25 15:23 | 64.83640 | -147.69630 | 4343 ft | 255 kts | 140° |
| 2026-04-25 15:23 | 64.82353 | -147.66773 | 5295 ft | 260 kts | 138° |
| 2026-04-25 15:23 | 64.81097 | -147.63701 | 6301 ft | 262 kts | 136° |
| 2026-04-25 15:24 | 64.79849 | -147.60557 | 7234 ft | 265 kts | 136° |
| 2026-04-25 15:24 | 64.78575 | -147.57345 | 8084 ft | 271 kts | 136° |
| 2026-04-25 15:24 | 64.77270 | -147.54067 | 8958 ft | 275 kts | 137° |
| 2026-04-25 15:24 | 64.76395 | -147.51880 | 9529 ft | 279 kts | 137° |
| 2026-04-25 15:25 | 64.74608 | -147.47432 | 10438 ft | 292 kts | 137° |
| 2026-04-25 15:25 | 64.73145 | -147.43823 | 10635 ft | 318 kts | 137° |
| 2026-04-25 15:25 | 64.71552 | -147.39904 | 10848 ft | 341 kts | 137° |
| 2026-04-25 15:25 | 64.69886 | -147.35804 | 11345 ft | 352 kts | 137° |
| 2026-04-25 15:26 | 64.68206 | -147.31672 | 12060 ft | 357 kts | 137° |
| 2026-04-25 15:26 | 64.66484 | -147.27445 | 12836 ft | 361 kts | 137° |
| 2026-04-25 15:26 | 64.64735 | -147.23163 | 13601 ft | 366 kts | 137° |
| 2026-04-25 15:26 | 64.62963 | -147.18835 | 14317 ft | 371 kts | 137° |
| 2026-04-25 15:27 | 64.61165 | -147.14457 | 15085 ft | 374 kts | 137° |
| 2026-04-25 15:27 | 64.59359 | -147.10067 | 15870 ft | 377 kts | 137° |
| 2026-04-25 15:27 | 64.55682 | -147.01164 | 17365 ft | 385 kts | 137° |
| 2026-04-25 15:28 | 64.53831 | -146.96699 | 18087 ft | 389 kts | 137° |
| 2026-04-25 15:28 | 64.51941 | -146.92149 | 18760 ft | 393 kts | 137° |
| 2026-04-25 15:28 | 64.50033 | -146.87565 | 19395 ft | 397 kts | 137° |
| 2026-04-25 15:28 | 64.48100 | -146.82930 | 20022 ft | 400 kts | 138° |
| 2026-04-25 15:29 | 64.46152 | -146.78272 | 20638 ft | 404 kts | 138° |
| 2026-04-25 15:29 | 64.44183 | -146.73572 | 21236 ft | 408 kts | 138° |
| 2026-04-25 15:29 | 64.42194 | -146.68834 | 21812 ft | 412 kts | 138° |
| 2026-04-25 15:29 | 64.40184 | -146.64058 | 22392 ft | 416 kts | 138° |
| 2026-04-25 15:30 | 64.38156 | -146.59249 | 22938 ft | 420 kts | 139° |
| 2026-04-25 15:30 | 64.36100 | -146.54387 | 23470 ft | 424 kts | 139° |
| 2026-04-25 15:30 | 64.34027 | -146.49494 | 23956 ft | 428 kts | 139° |
| 2026-04-25 15:30 | 64.31972 | -146.44653 | 24441 ft | 429 kts | 139° |
| 2026-04-25 15:31 | 64.29881 | -146.39736 | 24967 ft | 430 kts | 139° |
| 2026-04-25 15:31 | 64.27784 | -146.34817 | 25450 ft | 431 kts | 140° |
| 2026-04-25 15:31 | 64.25671 | -146.29875 | 25919 ft | 432 kts | 140° |
| 2026-04-25 15:31 | 64.23555 | -146.24936 | 26380 ft | 434 kts | 140° |
| 2026-04-25 15:32 | 64.21426 | -146.19980 | 26833 ft | 435 kts | 140° |
| 2026-04-25 15:32 | 64.19293 | -146.15025 | 27263 ft | 436 kts | 140° |
| 2026-04-25 15:32 | 64.17182 | -146.10135 | 27683 ft | 438 kts | 140° |
| 2026-04-25 15:33 | 64.12869 | -146.00171 | 28477 ft | 440 kts | 141° |
| 2026-04-25 15:33 | 64.10706 | -145.95194 | 28864 ft | 442 kts | 141° |
| 2026-04-25 15:33 | 64.08527 | -145.90189 | 29231 ft | 443 kts | 141° |
| 2026-04-25 15:33 | 64.06345 | -145.85185 | 29590 ft | 445 kts | 141° |
| 2026-04-25 15:34 | 64.04181 | -145.80236 | 29957 ft | 445 kts | 141° |
| 2026-04-25 15:34 | 64.01993 | -145.75236 | 30403 ft | 444 kts | 140° |
| 2026-04-25 15:34 | 63.99979 | -145.69876 | 30860 ft | 448 kts | 133° |
| 2026-04-25 15:34 | 63.99373 | -145.67902 | 31004 ft | 450 kts | 129° |
| 2026-04-25 15:35 | 63.95169 | -145.51438 | 32013 ft | 451 kts | 127° |
| 2026-04-25 15:35 | 63.93605 | -145.45250 | 32410 ft | 450 kts | 127° |
| 2026-04-25 15:35 | 63.92040 | -145.39108 | 32824 ft | 448 kts | 127° |
| 2026-04-25 15:36 | 63.88895 | -145.26906 | 33578 ft | 446 kts | 128° |
| 2026-04-25 15:36 | 63.87318 | -145.20841 | 33948 ft | 445 kts | 128° |
| 2026-04-25 15:36 | 63.85759 | -145.14870 | 34289 ft | 444 kts | 128° |
| 2026-04-25 15:37 | 63.84180 | -145.08846 | 34572 ft | 444 kts | 128° |
| 2026-04-25 15:37 | 63.82596 | -145.02819 | 34817 ft | 445 kts | 128° |
| 2026-04-25 15:37 | 63.81007 | -144.96786 | 35079 ft | 445 kts | 128° |
| 2026-04-25 15:37 | 63.79420 | -144.90780 | 35369 ft | 444 kts | 128° |
| 2026-04-25 15:38 | 63.77833 | -144.84783 | 35640 ft | 444 kts | 128° |
| 2026-04-25 15:38 | 63.76242 | -144.78790 | 35884 ft | 444 kts | 128° |
| 2026-04-25 15:38 | 63.74665 | -144.72866 | 36133 ft | 444 kts | 128° |
| 2026-04-25 15:38 | 63.73068 | -144.66879 | 36390 ft | 444 kts | 128° |
| 2026-04-25 15:39 | 63.71465 | -144.60891 | 36638 ft | 445 kts | 128° |
| 2026-04-25 15:39 | 63.69864 | -144.54922 | 36860 ft | 445 kts | 128° |
| 2026-04-25 15:39 | 63.68258 | -144.48953 | 37102 ft | 445 kts | 128° |
| 2026-04-25 15:39 | 63.66649 | -144.42986 | 37357 ft | 445 kts | 127° |
| 2026-04-25 15:40 | 63.65054 | -144.37091 | 37570 ft | 446 kts | 127° |
| 2026-04-25 15:40 | 63.64507 | -144.35071 | 37640 ft | 446 kts | 127° |
| 2026-04-25 15:40 | 63.61814 | -144.25158 | 38014 ft | 447 kts | 127° |
| 2026-04-25 15:40 | 63.60185 | -144.19180 | 38197 ft | 448 kts | 127° |
| 2026-04-25 15:41 | 63.58554 | -144.13214 | 38449 ft | 447 kts | 127° |
| 2026-04-25 15:41 | 63.56921 | -144.07255 | 38698 ft | 447 kts | 127° |
| 2026-04-25 15:41 | 63.55302 | -144.01361 | 38876 ft | 448 kts | 127° |
| 2026-04-25 15:41 | 63.53657 | -143.95394 | 39036 ft | 448 kts | 127° |
| 2026-04-25 15:42 | 63.52017 | -143.89454 | 39160 ft | 448 kts | 127° |
| 2026-04-25 15:42 | 63.50365 | -143.83491 | 39159 ft | 450 kts | 127° |
| 2026-04-25 15:42 | 63.47062 | -143.71612 | 39171 ft | 448 kts | 127° |
| 2026-04-25 15:43 | 63.43780 | -143.59869 | 39154 ft | 446 kts | 127° |
| 2026-04-25 15:43 | 63.40479 | -143.48119 | 39142 ft | 444 kts | 127° |
| 2026-04-25 15:44 | 63.37198 | -143.36505 | 39123 ft | 443 kts | 127° |
| 2026-04-25 15:44 | 63.33901 | -143.24895 | 39116 ft | 442 kts | 128° |
| 2026-04-25 15:45 | 63.30619 | -143.13393 | 39108 ft | 442 kts | 128° |
| 2026-04-25 15:45 | 63.28405 | -143.05669 | 39110 ft | 442 kts | 128° |
| 2026-04-25 15:46 | 63.23991 | -142.90348 | 39111 ft | 443 kts | 128° |
| 2026-04-25 15:46 | 63.20659 | -142.78851 | 39125 ft | 443 kts | 128° |
| 2026-04-25 15:47 | 63.17313 | -142.67363 | 39123 ft | 444 kts | 128° |
| 2026-04-25 15:47 | 63.13954 | -142.55887 | 39143 ft | 444 kts | 128° |
| 2026-04-25 15:48 | 63.10579 | -142.44418 | 39144 ft | 445 kts | 128° |
| 2026-04-25 15:48 | 63.07192 | -142.32965 | 39135 ft | 446 kts | 129° |
| 2026-04-25 15:49 | 63.03792 | -142.21521 | 39118 ft | 446 kts | 129° |
| 2026-04-25 15:49 | 63.00384 | -142.10104 | 39106 ft | 446 kts | 129° |
| 2026-04-25 15:50 | 62.96988 | -141.98785 | 39107 ft | 446 kts | 129° |
| 2026-04-25 15:50 | 62.93091 | -141.88402 | 39107 ft | 435 kts | 144° |
| 2026-04-25 15:51 | 62.89942 | -141.83004 | 39112 ft | 431 kts | 148° |
| 2026-04-25 15:51 | 62.83528 | -141.72498 | 39120 ft | 431 kts | 148° |
| 2026-04-25 15:52 | 62.78719 | -141.64595 | 39136 ft | 431 kts | 148° |
| 2026-04-25 15:52 | 62.74738 | -141.58033 | 39149 ft | 431 kts | 148° |
| 2026-04-25 15:53 | 62.69929 | -141.50116 | 39167 ft | 431 kts | 148° |
| 2026-04-25 15:53 | 62.65160 | -141.42291 | 39175 ft | 432 kts | 148° |
| 2026-04-25 15:54 | 62.60340 | -141.34418 | 39172 ft | 432 kts | 148° |
| 2026-04-25 15:54 | 62.55555 | -141.26635 | 39174 ft | 432 kts | 148° |
| 2026-04-25 15:55 | 62.50730 | -141.18819 | 39176 ft | 433 kts | 148° |
| 2026-04-25 15:55 | 62.45892 | -141.11015 | 39173 ft | 433 kts | 148° |
| 2026-04-25 15:56 | 62.41084 | -141.03291 | 39182 ft | 433 kts | 148° |
| 2026-04-25 15:56 | 62.36225 | -140.95517 | 39182 ft | 433 kts | 148° |
| 2026-04-25 15:57 | 62.31400 | -140.87829 | 39182 ft | 433 kts | 148° |
| 2026-04-25 15:57 | 62.26548 | -140.80130 | 39188 ft | 433 kts | 148° |
| 2026-04-25 15:58 | 62.21690 | -140.72453 | 39188 ft | 433 kts | 148° |
| 2026-04-25 15:58 | 62.16845 | -140.64827 | 39196 ft | 433 kts | 148° |
| 2026-04-25 15:59 | 62.11969 | -140.57184 | 39195 ft | 434 kts | 148° |
| 2026-04-25 15:59 | 62.07083 | -140.49558 | 39193 ft | 434 kts | 148° |
| 2026-04-25 16:00 | 62.03023 | -140.43242 | 39203 ft | 434 kts | 148° |
| 2026-04-25 16:00 | 61.97337 | -140.34436 | 39196 ft | 434 kts | 148° |
| 2026-04-25 16:01 | 61.92445 | -140.26891 | 39205 ft | 435 kts | 148° |
| 2026-04-25 16:01 | 61.87541 | -140.19358 | 39193 ft | 435 kts | 148° |
| 2026-04-25 16:02 | 61.82658 | -140.11888 | 39198 ft | 435 kts | 148° |
| 2026-04-25 16:02 | 61.77745 | -140.04401 | 39202 ft | 434 kts | 148° |
| 2026-04-25 16:03 | 61.72867 | -139.96999 | 39202 ft | 434 kts | 148° |
| 2026-04-25 16:03 | 61.67952 | -139.89570 | 39203 ft | 433 kts | 149° |
| 2026-04-25 16:04 | 61.63042 | -139.82178 | 39202 ft | 433 kts | 149° |
| 2026-04-25 16:04 | 61.58132 | -139.74816 | 39215 ft | 432 kts | 149° |
| 2026-04-25 16:05 | 61.53244 | -139.67517 | 39199 ft | 433 kts | 149° |
| 2026-04-25 16:06 | 61.45849 | -139.56526 | 39171 ft | 435 kts | 149° |
| 2026-04-25 16:06 | 61.40930 | -139.49252 | 39152 ft | 435 kts | 149° |
| 2026-04-25 16:07 | 61.35979 | -139.41958 | 39139 ft | 436 kts | 149° |
| 2026-04-25 16:07 | 61.31011 | -139.34668 | 39130 ft | 435 kts | 149° |
| 2026-04-25 16:08 | 61.26053 | -139.27422 | 39132 ft | 435 kts | 149° |
| 2026-04-25 16:08 | 61.21125 | -139.20248 | 39137 ft | 434 kts | 149° |
| 2026-04-25 16:09 | 61.16154 | -139.13041 | 39151 ft | 434 kts | 149° |
| 2026-04-25 16:09 | 61.11233 | -139.05932 | 39153 ft | 434 kts | 149° |
| 2026-04-25 16:10 | 61.06256 | -138.98772 | 39168 ft | 434 kts | 149° |
| 2026-04-25 16:10 | 61.01282 | -138.91643 | 39172 ft | 435 kts | 149° |
| 2026-04-25 16:11 | 60.96343 | -138.84591 | 39179 ft | 435 kts | 149° |
| 2026-04-25 16:11 | 60.91355 | -138.77499 | 39171 ft | 435 kts | 149° |
| 2026-04-25 16:12 | 60.86353 | -138.70413 | 39177 ft | 436 kts | 149° |
| 2026-04-25 16:12 | 60.81390 | -138.63409 | 39178 ft | 435 kts | 149° |
| 2026-04-25 16:13 | 60.76400 | -138.56392 | 39168 ft | 435 kts | 149° |
| 2026-04-25 16:13 | 60.71402 | -138.49394 | 39182 ft | 434 kts | 149° |
| 2026-04-25 16:14 | 60.66404 | -138.42421 | 39182 ft | 434 kts | 149° |
| 2026-04-25 16:14 | 60.61444 | -138.35528 | 39197 ft | 433 kts | 149° |
| 2026-04-25 16:15 | 60.56446 | -138.28610 | 39205 ft | 434 kts | 150° |
| 2026-04-25 16:15 | 60.51443 | -138.21710 | 39213 ft | 435 kts | 149° |
| 2026-04-25 16:16 | 60.46423 | -138.14813 | 39223 ft | 435 kts | 150° |
| 2026-04-25 16:16 | 60.41438 | -138.07990 | 39246 ft | 435 kts | 150° |
| 2026-04-25 16:17 | 60.36417 | -138.01144 | 39253 ft | 435 kts | 150° |
| 2026-04-25 16:17 | 60.31385 | -137.94308 | 39268 ft | 435 kts | 149° |
| 2026-04-25 16:18 | 60.26353 | -137.87499 | 39277 ft | 435 kts | 150° |
| 2026-04-25 16:18 | 60.21348 | -137.80750 | 39296 ft | 435 kts | 150° |
| 2026-04-25 16:19 | 60.16339 | -137.74022 | 39291 ft | 435 kts | 149° |
| 2026-04-25 16:19 | 60.11291 | -137.67267 | 39291 ft | 435 kts | 150° |
| 2026-04-25 16:20 | 60.03750 | -137.57222 | 39285 ft | 435 kts | 150° |
| 2026-04-25 16:21 | 59.96150 | -137.47155 | 39292 ft | 435 kts | 150° |
| 2026-04-25 16:21 | 59.91113 | -137.40516 | 39289 ft | 436 kts | 150° |
| 2026-04-25 16:22 | 59.86040 | -137.33852 | 39292 ft | 436 kts | 150° |
| 2026-04-25 16:22 | 59.80986 | -137.27237 | 39298 ft | 436 kts | 150° |
| 2026-04-25 16:23 | 59.75905 | -137.20613 | 39290 ft | 437 kts | 150° |
| 2026-04-25 16:23 | 59.70844 | -137.14041 | 39294 ft | 437 kts | 150° |
| 2026-04-25 16:24 | 59.65742 | -137.07437 | 39289 ft | 438 kts | 150° |
| 2026-04-25 16:24 | 59.60631 | -137.00846 | 39285 ft | 438 kts | 150° |
| 2026-04-25 16:25 | 59.55518 | -136.94276 | 39279 ft | 439 kts | 150° |
| 2026-04-25 16:25 | 59.50389 | -136.87711 | 39283 ft | 439 kts | 150° |
| 2026-04-25 16:26 | 59.45290 | -136.81208 | 39278 ft | 440 kts | 150° |
| 2026-04-25 16:26 | 59.40124 | -136.74645 | 39281 ft | 441 kts | 150° |
| 2026-04-25 16:27 | 59.34960 | -136.68107 | 39281 ft | 441 kts | 150° |
| 2026-04-25 16:27 | 59.29827 | -136.61632 | 39283 ft | 442 kts | 150° |
| 2026-04-25 16:28 | 59.24659 | -136.55137 | 39279 ft | 442 kts | 150° |
| 2026-04-25 16:28 | 59.19474 | -136.48644 | 39298 ft | 442 kts | 150° |